Цивильск

Карта отелей и гостиниц, располагающихся рядом с аэропортом Цивильск :

Цивильск Чувашия 55° 49' 22.98" N, 47° 26' 32.3988" E
Код аэродрома ИКАО
ZA2J
Код аэродрома RU
ЗА2Й
Координаты
N55.82305° E047.44233°
Превышение над уровнем моря
137
Основная полоса
36/18
Курс магнитный
004/184
Длина основной ВПП
400
Ширина основной ВПП
28
Покрытие основной ВПП
Твёрдое (асфальт)
Освещение ВПП
Нет
Тип: 
Аэродром
Класс аэродрома: 
Принадлежность: 
ГА
Статус: 
Недействующий
Сайт: 
E-mail аэродрома: 
Страна: 
Россия
Регион: 
Чувашия
Город: 
Дополнительная информация: 
Площадка АХР.

Найти трансфер

С помощью этой формы Вы можете найти трансфер из аэропорта Цивильск в город, аэропорт или вокзал:

Карта места

Javascript is required to view this map.

Погода в аэропортах:

Авиационная погода в Борисполе

Регион: 
Погода METAR: 
UKBB 171330Z 20001MPS 3900 -RA BR SCT005 OVC012 07/06 Q1018 R18L/290050 NOSIG
Время наблюдения
2021-04-17T13:30:00Z
Температура C
7.0
Точка росы
6.0
Направление ветра
200
Скорость ветра (узлы)
2
Метео видимость
2.42
Явления погоды
-RA BR
Условия полета
IFR
Аэропорт подробнее: 

Авиационная погода в Ботсфьорде

Регион: 
Погода METAR: 
ENBS 161920Z 27037G47KT 9999 VCSH SCT020 SCT041 03/01 Q1023
Время наблюдения
2021-04-16T19:20:00Z
Температура C
3.0
Точка росы
1.0
Направление ветра
270
Скорость ветра (узлы)
37
Метео видимость
6.21
Явления погоды
VCSH
Условия полета
VFR

Авиационная погода в Мирном

Регион: 
Погода METAR: 
UERR 171400Z 29007G12MPS 9999 DRSN NSC M12/M21 Q0999 R25/890340 NOSIG RMK QFE719/0958
Время наблюдения
2021-04-17T14:00:00Z
Температура C
-12.0
Точка росы
-21.0
Направление ветра
290
Скорость ветра (узлы)
14
Метео видимость
6.21
Явления погоды
DRSN
Условия полета
VFR
Аэропорт подробнее: 

Авиационная погода в Брянске

Регион: 
Погода METAR: 
UUBP 171330Z 19005MPS 4100 -SHRA BKN007CB 07/07 Q1017 R16/290150 TEMPO 20005G10MPS 2100 -TSRA BKN005 BKN015CB RMK QFE744/0993
Время наблюдения
2021-04-17T13:30:00Z
Температура C
7.0
Точка росы
7.0
Направление ветра
190
Скорость ветра (узлы)
10
Метео видимость
2.55
Явления погоды
-SHRA
Условия полета
IFR
Аэропорт подробнее: